메인 페이지
METAR-TAF:

METAR-TAF

공항 :

Mammoth Yosemite Airport

Mammoth Lakes, 캘리포니아, 미국

위도: 37-37N, 경도: 118-50W, 고도: 2173m

현재 날씨관측

예보는 16분 전, 02:55시(UTC)에 발표되었습니다.
10kt, 순간 최대 풍속 16kt
온도 20°C
습도 35%
기압 1024 hPa
시정: 16.1km
맑음

METAR: KMMH 150255Z AUTO 28010G16KT 10SM CLR 20/04 A3024 RMK AO2 T02040035

시각: 20:11 (03:11 UTC)

예보

예보는 3 시간 32분 전, 23:39시(UTC)에 발표되었습니다.
예보 대상 시간: 15일 00시부터 15일 24시까지 (UTC)
남서12kt, 순간 최대 풍속 20kt
시정: 10km
고도 10000ft 상공 구름 보통
고도 15000ft 상공 구름 많음
15일 0400시부터 (UTC)
여러 방향의 바람 4kt
시정: 10km
고도 11000ft 상공 구름 조금
고도 15000ft 상공 구름 많음
15일 1700시부터 (UTC)
동남동8kt
시정: 10km
고도 12000ft 상공 구름 조금
15일 2100시부터 (UTC)
11kt, 순간 최대 풍속 20kt
시정: 10km
고도 8000ft 상공 구름 조금
고도 12000ft 상공 구름 보통
시계 내 소나기

TAF: KMMH 142339Z 1500/1524 22012G20KT P6SM SCT100 BKN150 FM150400 VRB04KT P6SM FEW110 BKN150 FM151700 12008KT P6SM FEW120 FM152100 27011G20KT P6SM VCSH FEW080 SCT120

4,000개 이상의 공항 관측 자료 및 예보 (METAR 및 TAF 보고).

지도상에서 검색 가능한 기상관측소가 노란 점과 빨간 점으로 표시되어 있습니다.

기상관측소 명을 보려면 표시 위로 마우스를 이동하세요.

날씨 관측과 예보를 보려면 클릭하세요.

지도 변경 : 확대하려면 엑스 표시가 있는 녹색 버튼, 축소하려면 빼기 표시가 있는 녹색 버튼, 다음 페이지의 지도를 보려면 녹색 화살표를 클릭하세요.


METAR-TAF: